Time;durP1;ratioP1;P1;durP2;ratioP2;P2;SDS_P1;SDS_P2;PMS_P1;PMS_P2;Temp;Humidity;BMP_temperature;BMP_pressure;BME280_temperature;BME280_humidity;BME280_pressure;Samples;Min_cycle;Max_cycle;Signal;HPM_P1;HPM_P2
2022/03/10 00:02:22;;;;;;;0.80;0.80;;;11.80;55.30;;;;;;5059300;28;20452;-63
2022/03/10 00:04:53;;;;;;;0.83;0.83;;;11.70;56.10;;;;;;5060127;28;20452;-63
2022/03/10 00:07:25;;;;;;;0.80;0.80;;;11.50;55.40;;;;;;5054993;28;20454;-63
2022/03/10 00:09:57;;;;;;;0.90;0.90;;;11.30;56.50;;;;;;5062948;28;20452;-63
2022/03/10 00:12:28;;;;;;;1.13;1.03;;;11.10;56.80;;;;;;5056040;28;21150;-63
2022/03/10 00:14:59;;;;;;;0.80;0.80;;;11.00;57.90;;;;;;5069922;28;20483;-62
2022/03/10 00:17:30;;;;;;;1.30;1.17;;;10.80;56.40;;;;;;5065192;28;20531;-63
2022/03/10 00:20:01;;;;;;;1.93;0.90;;;10.60;58.10;;;;;;5066702;28;20451;-62
2022/03/10 00:22:33;;;;;;;1.73;0.90;;;10.60;58.70;;;;;;5057464;28;20448;-64
2022/03/10 00:25:06;;;;;;;1.10;1.00;;;10.40;59.50;;;;;;5066921;28;20529;-63
2022/03/10 00:27:40;;;;;;;1.00;1.00;;;10.30;59.10;;;;;;5053653;28;20448;-63
2022/03/10 00:30:11;;;;;;;1.40;1.20;;;10.30;59.10;;;;;;5064251;28;20528;-62
2022/03/10 00:32:49;;;;;;;1.30;1.20;;;10.30;57.80;;;;;;5064693;28;20471;-63
2022/03/10 00:35:21;;;;;;;1.00;0.90;;;10.30;57.90;;;;;;5053420;28;20447;-63
2022/03/10 00:37:59;;;;;;;2.77;1.33;;;10.40;57.90;;;;;;5063122;28;20568;-65
2022/03/10 00:40:31;;;;;;;0.93;0.93;;;10.40;59.00;;;;;;5064377;28;20449;-66
2022/03/10 00:43:05;;;;;;;1.90;1.23;;;10.30;58.10;;;;;;5063496;28;20459;-66
2022/03/10 00:45:35;;;;;;;1.63;0.83;;;10.20;58.30;;;;;;5064821;28;20455;-63
2022/03/10 00:48:07;;;;;;;1.87;0.87;;;9.90;58.90;;;;;;5068034;28;20441;-66
2022/03/10 00:50:38;;;;;;;1.20;0.90;;;9.80;59.30;;;;;;5065737;28;20441;-66
2022/03/10 00:53:13;;;;;;;1.00;1.00;;;9.70;59.70;;;;;;5064023;28;20595;-65
2022/03/10 00:55:45;;;;;;;1.20;1.10;;;9.50;58.30;;;;;;5066484;28;20547;-62
2022/03/10 00:58:19;;;;;;;2.10;1.30;;;9.50;59.30;;;;;;5063272;28;20294;-65
2022/03/10 01:00:53;;;;;;;1.80;1.10;;;9.50;59.80;;;;;;5073178;28;20471;-66
2022/03/10 01:03:27;;;;;;;0.98;0.88;;;9.50;59.10;;;;;;5064395;28;20845;-64
2022/03/10 01:05:58;;;;;;;1.15;1.10;;;9.50;59.60;;;;;;5067079;28;20198;-66
2022/03/10 01:08:29;;;;;;;1.20;1.10;;;9.50;61.00;;;;;;5064093;28;20225;-65
2022/03/10 01:11:02;;;;;;;1.63;1.52;;;9.50;59.80;;;;;;5064453;28;20204;-66
2022/03/10 01:13:33;;;;;;;1.33;1.23;;;9.50;60.00;;;;;;5063382;28;20285;-66
2022/03/10 01:16:04;;;;;;;3.00;1.40;;;9.40;59.80;;;;;;5064474;28;20297;-66
2022/03/10 01:18:38;;;;;;;1.27;1.27;;;9.30;60.20;;;;;;5063530;28;20510;-68
2022/03/10 01:21:09;;;;;;;1.20;1.10;;;9.30;61.50;;;;;;5063358;28;20270;-63
2022/03/10 01:23:52;;;;;;;1.17;1.10;;;9.20;60.50;;;;;;5063798;28;20543;-64
2022/03/10 01:26:25;;;;;;;1.08;1.05;;;9.20;61.00;;;;;;5061734;28;20198;-65
2022/03/10 01:28:56;;;;;;;1.58;1.15;;;9.20;61.70;;;;;;5063609;28;20666;-67
2022/03/10 01:31:27;;;;;;;1.17;1.08;;;9.20;62.60;;;;;;5064519;28;20210;-68
2022/03/10 01:33:59;;;;;;;1.00;1.00;;;9.20;61.90;;;;;;5062306;28;20200;-72
2022/03/10 01:36:31;;;;;;;1.40;1.30;;;9.10;62.50;;;;;;5064215;28;20879;-72
2022/03/10 01:39:10;;;;;;;1.10;1.00;;;9.10;63.10;;;;;;5063013;28;20505;-67
2022/03/10 01:41:45;;;;;;;1.20;1.10;;;9.00;63.70;;;;;;5063843;28;20550;-65
2022/03/10 01:44:20;;;;;;;1.20;1.20;;;8.90;63.60;;;;;;5061135;28;20768;-61
2022/03/10 01:46:51;;;;;;;1.50;1.08;;;8.90;65.20;;;;;;5069167;28;20201;-62
2022/03/10 01:49:22;;;;;;;1.73;1.23;;;8.90;65.20;;;;;;5067261;28;20667;-64
2022/03/10 01:51:54;;;;;;;1.47;1.10;;;8.80;65.40;;;;;;5072122;28;20468;-61
2022/03/10 01:54:25;;;;;;;1.60;1.50;;;8.70;66.80;;;;;;5058333;28;20447;-64
2022/03/10 01:56:58;;;;;;;1.85;1.60;;;8.60;65.80;;;;;;5062901;28;20639;-63
2022/03/10 01:59:29;;;;;;;1.52;1.42;;;8.50;66.30;;;;;;5062270;28;20222;-62
2022/03/10 02:02:00;;;;;;;1.30;1.20;;;8.50;67.30;;;;;;5058819;28;20212;-60
2022/03/10 02:04:32;;;;;;;1.73;1.63;;;8.40;68.20;;;;;;5061355;28;20235;-60
2022/03/10 02:07:05;;;;;;;2.40;2.00;;;8.40;67.00;;;;;;5063852;28;20201;-62
2022/03/10 02:12:27;;;;;;;2.17;1.05;;;8.30;70.80;;;;;;5063078;28;20226;-64
2022/03/10 02:18:01;;;;;;;2.45;1.65;;;8.20;69.80;;;;;;5062090;28;20217;-63
2022/03/10 02:20:32;;;;;;;1.48;1.30;;;8.10;72.20;;;;;;5063083;28;20237;-64
2022/03/10 02:23:05;;;;;;;1.33;1.27;;;8.00;72.30;;;;;;5062978;28;20202;-63
2022/03/10 02:25:38;;;;;;;1.48;1.38;;;7.90;71.70;;;;;;5059809;28;20238;-61
2022/03/10 02:28:10;;;;;;;1.60;1.50;;;7.80;75.00;;;;;;5064474;28;20281;-60
2022/03/10 02:30:41;;;;;;;1.58;1.48;;;7.80;74.20;;;;;;5061586;28;20202;-61
2022/03/10 02:33:12;;;;;;;1.50;1.40;;;7.70;76.00;;;;;;5066323;28;20284;-61
2022/03/10 02:35:43;;;;;;;1.80;1.70;;;7.50;77.90;;;;;;5062480;28;20269;-62
2022/03/10 02:38:19;;;;;;;1.60;1.50;;;7.50;77.40;;;;;;5061909;28;20566;-64
2022/03/10 02:40:51;;;;;;;1.60;1.50;;;7.40;78.40;;;;;;5062629;28;20196;-63
2022/03/10 02:43:23;;;;;;;2.40;1.95;;;7.30;79.40;;;;;;5061324;28;20194;-61
2022/03/10 02:45:54;;;;;;;1.92;1.60;;;7.30;81.10;;;;;;5061856;28;20258;-64
2022/03/10 02:48:25;;;;;;;1.75;1.65;;;7.20;81.80;;;;;;5063448;28;20244;-63
2022/03/10 02:50:56;;;;;;;1.70;1.50;;;7.20;83.20;;;;;;5070160;28;20209;-63
2022/03/10 02:53:29;;;;;;;1.70;1.60;;;7.10;84.10;;;;;;5061957;28;20206;-62
2022/03/10 02:56:00;;;;;;;1.90;1.80;;;7.10;83.00;;;;;;5059779;28;20201;-61
2022/03/10 02:58:31;;;;;;;1.70;1.60;;;7.00;85.60;;;;;;5060914;28;20226;-61
2022/03/10 03:01:02;;;;;;;2.05;1.95;;;7.00;87.60;;;;;;5067037;28;20230;-62
2022/03/10 03:03:33;;;;;;;1.80;1.70;;;7.00;86.30;;;;;;5060880;28;20217;-62
2022/03/10 03:06:04;;;;;;;2.00;1.90;;;6.90;86.90;;;;;;5063168;28;20210;-63
2022/03/10 03:08:37;;;;;;;2.45;1.98;;;6.80;86.60;;;;;;5061172;28;20219;-63
2022/03/10 03:11:08;;;;;;;1.80;1.70;;;6.80;86.00;;;;;;5074544;28;20190;-64
2022/03/10 03:13:39;;;;;;;1.80;1.70;;;6.70;85.70;;;;;;5060550;28;20250;-62
2022/03/10 03:16:13;;;;;;;2.10;1.95;;;6.70;85.90;;;;;;5063062;28;20681;-61
2022/03/10 03:18:44;;;;;;;2.40;2.20;;;6.60;89.00;;;;;;5061063;28;20220;-62
2022/03/10 03:21:18;;;;;;;1.80;1.70;;;6.50;89.90;;;;;;5061925;28;20228;-62
2022/03/10 03:23:51;;;;;;;1.75;1.65;;;6.50;90.40;;;;;;5061017;28;20213;-62
2022/03/10 03:26:26;;;;;;;2.30;2.20;;;6.50;90.90;;;;;;5062448;28;20669;-62
2022/03/10 03:28:58;;;;;;;3.47;3.17;;;6.40;90.10;;;;;;5069276;28;20194;-63
2022/03/10 03:31:35;;;;;;;2.15;1.95;;;6.40;91.00;;;;;;5062526;28;20213;-62
2022/03/10 03:34:10;;;;;;;2.00;1.80;;;6.30;90.90;;;;;;5062271;28;20239;-62
2022/03/10 03:36:44;;;;;;;2.50;1.90;;;6.30;91.20;;;;;;5065246;28;20270;-62
2022/03/10 03:39:17;;;;;;;1.70;1.58;;;6.30;92.00;;;;;;5052469;28;20327;-63
2022/03/10 03:41:49;;;;;;;1.80;1.70;;;6.20;91.80;;;;;;5055045;28;20209;-62
2022/03/10 03:44:19;;;;;;;2.63;1.85;;;6.20;91.50;;;;;;5050927;28;20261;-62
2022/03/10 03:47:02;;;;;;;2.10;2.00;;;6.20;90.80;;;;;;5064775;28;20217;-62
2022/03/10 03:49:33;;;;;;;2.13;1.75;;;6.20;90.50;;;;;;5056610;28;20245;-62
2022/03/10 03:52:05;;;;;;;2.33;2.00;;;6.10;91.00;;;;;;5061779;28;20245;-63
2022/03/10 03:54:38;;;;;;;2.72;2.40;;;6.10;91.20;;;;;;5067738;28;20206;-63
2022/03/10 03:57:11;;;;;;;2.40;2.20;;;6.00;91.50;;;;;;5045670;28;20213;-63
2022/03/10 03:59:42;;;;;;;2.13;1.90;;;6.00;91.60;;;;;;5052346;28;20219;-62
2022/03/10 04:02:15;;;;;;;2.30;2.10;;;5.80;92.00;;;;;;5059222;28;20202;-63
2022/03/10 04:04:47;;;;;;;2.10;1.90;;;5.80;92.40;;;;;;5062653;28;20637;-63
2022/03/10 04:07:20;;;;;;;1.80;1.70;;;5.80;92.20;;;;;;5068322;28;20274;-64
2022/03/10 04:09:52;;;;;;;2.22;2.03;;;5.80;92.60;;;;;;5065344;28;20618;-64
2022/03/10 04:12:24;;;;;;;2.65;2.25;;;5.70;93.50;;;;;;5065289;28;21150;-66
2022/03/10 04:14:55;;;;;;;2.67;2.47;;;5.70;93.70;;;;;;5064512;28;20245;-65
2022/03/10 04:17:31;;;;;;;3.78;2.60;;;5.60;93.30;;;;;;5066806;28;20197;-66
2022/03/10 04:20:08;;;;;;;2.65;2.15;;;5.60;92.20;;;;;;5065280;28;20257;-66
2022/03/10 04:22:39;;;;;;;2.03;1.92;;;5.60;92.10;;;;;;5062765;28;20206;-64
2022/03/10 04:25:14;;;;;;;1.50;1.40;;;5.60;91.90;;;;;;5049163;28;20210;-65
2022/03/10 04:27:49;;;;;;;1.90;1.80;;;5.60;92.00;;;;;;5063970;28;20288;-64
2022/03/10 04:30:23;;;;;;;3.15;2.17;;;5.60;92.20;;;;;;5058498;28;20214;-66
2022/03/10 04:32:57;;;;;;;1.90;1.80;;;5.60;92.20;;;;;;5062302;28;20232;-66
2022/03/10 04:35:28;;;;;;;1.92;1.83;;;5.50;92.60;;;;;;5068860;28;20288;-65
2022/03/10 04:38:02;;;;;;;1.80;1.70;;;5.50;92.70;;;;;;5062961;28;20201;-64
2022/03/10 04:40:37;;;;;;;2.25;2.10;;;5.50;93.50;;;;;;5064783;28;20326;-65
2022/03/10 04:43:11;;;;;;;2.45;1.70;;;5.40;93.40;;;;;;5059093;28;20216;-65
2022/03/10 04:45:42;;;;;;;1.95;1.85;;;5.30;93.80;;;;;;5064242;28;20296;-65
2022/03/10 04:48:13;;;;;;;2.97;1.67;;;5.30;93.70;;;;;;5066338;28;20189;-64
2022/03/10 04:50:44;;;;;;;2.78;2.35;;;5.30;93.80;;;;;;5065020;28;20206;-65
2022/03/10 04:53:16;;;;;;;2.50;2.13;;;5.20;94.60;;;;;;5064650;28;20202;-63
2022/03/10 04:55:48;;;;;;;2.40;1.83;;;5.20;94.90;;;;;;5070318;28;20214;-63
2022/03/10 04:58:20;;;;;;;2.88;2.67;;;5.20;95.10;;;;;;5055864;28;20228;-63
2022/03/10 05:00:51;;;;;;;2.50;2.33;;;5.20;95.60;;;;;;5062366;28;20213;-62
2022/03/10 05:03:22;;;;;;;2.40;2.20;;;5.20;95.60;;;;;;5064018;28;20257;-63
2022/03/10 05:05:53;;;;;;;2.58;2.38;;;5.10;95.40;;;;;;5060784;28;20198;-63
2022/03/10 05:08:29;;;;;;;3.60;3.00;;;5.10;95.50;;;;;;5064024;28;20202;-63
2022/03/10 05:11:02;;;;;;;4.43;3.42;;;5.10;96.40;;;;;;5057555;28;20229;-62
2022/03/10 05:13:39;;;;;;;2.70;2.50;;;5.00;95.50;;;;;;5065937;28;20228;-62
2022/03/10 05:16:11;;;;;;;6.35;3.10;;;5.00;96.20;;;;;;5063632;28;20301;-63
2022/03/10 05:18:44;;;;;;;3.20;2.85;;;5.00;96.90;;;;;;5064989;28;20220;-62
2022/03/10 05:21:25;;;;;;;2.75;2.30;;;5.00;96.20;;;;;;5077082;28;20226;-63
2022/03/10 05:23:58;;;;;;;3.50;2.60;;;4.90;96.10;;;;;;5067934;28;20264;-63
2022/03/10 05:26:31;;;;;;;3.00;2.55;;;4.90;96.10;;;;;;5062644;28;20206;-63
2022/03/10 05:29:05;;;;;;;3.00;2.70;;;4.90;95.50;;;;;;5063668;28;20228;-62
2022/03/10 05:31:43;;;;;;;2.40;2.20;;;4.90;95.80;;;;;;5060817;28;20205;-63
2022/03/10 05:34:14;;;;;;;4.32;2.80;;;4.80;96.30;;;;;;5059840;28;20198;-62
2022/03/10 05:36:45;;;;;;;2.47;2.28;;;4.80;96.00;;;;;;5067831;28;20701;-61
2022/03/10 05:39:16;;;;;;;3.55;2.10;;;4.80;96.10;;;;;;5068486;28;20212;-62
2022/03/10 05:41:48;;;;;;;3.55;2.30;;;4.80;95.90;;;;;;5064430;28;20548;-62
2022/03/10 05:44:19;;;;;;;2.17;1.90;;;4.70;95.70;;;;;;5062324;28;20216;-62
2022/03/10 05:46:50;;;;;;;3.15;2.70;;;4.80;95.60;;;;;;5062744;28;20277;-62
2022/03/10 05:49:21;;;;;;;2.22;2.03;;;4.70;95.10;;;;;;5063522;28;20212;-62
2022/03/10 05:51:52;;;;;;;3.13;2.55;;;4.70;95.10;;;;;;5076251;28;20265;-61
2022/03/10 05:54:26;;;;;;;2.50;2.30;;;4.70;94.90;;;;;;5069165;28;20194;-62
2022/03/10 05:56:59;;;;;;;2.17;1.90;;;4.60;94.90;;;;;;5063275;28;20280;-61
2022/03/10 05:59:30;;;;;;;1.77;1.67;;;4.70;94.90;;;;;;5058522;28;20213;-62
2022/03/10 06:02:02;;;;;;;2.05;1.65;;;4.60;94.60;;;;;;5064020;28;20206;-62
2022/03/10 06:04:33;;;;;;;2.20;1.70;;;4.60;94.80;;;;;;5061356;28;20662;-61
2022/03/10 06:07:04;;;;;;;1.52;1.48;;;4.60;94.40;;;;;;5062494;28;20202;-62
2022/03/10 06:09:35;;;;;;;2.17;2.03;;;4.50;95.10;;;;;;5065542;28;20203;-61
2022/03/10 06:12:09;;;;;;;1.40;1.30;;;4.50;95.50;;;;;;5069864;28;20279;-62
2022/03/10 06:14:42;;;;;;;1.88;1.77;;;4.50;94.90;;;;;;5062215;28;20241;-62
2022/03/10 06:17:13;;;;;;;1.98;1.73;;;4.40;94.90;;;;;;5063723;28;20288;-61
2022/03/10 06:19:45;;;;;;;1.67;1.58;;;4.40;95.40;;;;;;5064081;28;20276;-62
2022/03/10 06:22:19;;;;;;;1.52;1.30;;;4.40;95.30;;;;;;5063356;28;20232;-62
2022/03/10 06:24:51;;;;;;;1.95;1.85;;;4.50;94.60;;;;;;5059669;28;20315;-61
2022/03/10 06:27:23;;;;;;;1.70;1.60;;;4.50;94.90;;;;;;5062538;28;20219;-62
2022/03/10 06:29:55;;;;;;;1.70;1.60;;;4.40;95.10;;;;;;5063851;28;20197;-62
2022/03/10 06:32:27;;;;;;;1.73;1.60;;;4.30;96.30;;;;;;5062863;28;20206;-62
2022/03/10 06:34:59;;;;;;;1.65;1.55;;;4.30;95.60;;;;;;5063291;28;20190;-61
2022/03/10 06:37:31;;;;;;;1.40;1.30;;;4.30;96.60;;;;;;5062262;28;20202;-62
2022/03/10 06:40:02;;;;;;;2.90;1.70;;;4.10;97.60;;;;;;5062939;28;20232;-61
2022/03/10 06:42:35;;;;;;;1.75;1.58;;;4.00;99.90;;;;;;5061708;28;20202;-61
2022/03/10 06:45:07;;;;;;;1.80;1.70;;;3.90;99.90;;;;;;5065251;28;20206;-61
2022/03/10 06:47:41;;;;;;;3.13;1.60;;;3.90;98.70;;;;;;5064165;28;20232;-61
2022/03/10 06:50:12;;;;;;;2.47;1.95;;;3.90;99.90;;;;;;5064597;28;20222;-61
2022/03/10 06:52:42;;;;;;;3.00;2.30;;;3.80;99.90;;;;;;5062675;28;20380;-61
2022/03/10 06:55:13;;;;;;;2.40;1.83;;;3.60;99.90;;;;;;5062649;28;20212;-61
2022/03/10 06:57:46;;;;;;;2.20;2.00;;;3.60;99.90;;;;;;5062393;28;20201;-61
2022/03/10 07:00:17;;;;;;;1.55;1.45;;;3.50;99.90;;;;;;5062303;28;20217;-62
2022/03/10 07:02:48;;;;;;;2.20;1.60;;;3.40;99.90;;;;;;5062304;28;20186;-62
2022/03/10 07:05:19;;;;;;;1.83;1.73;;;3.40;99.90;;;;;;5063196;28;20308;-62
2022/03/10 07:07:49;;;;;;;2.13;1.77;;;3.30;99.90;;;;;;5062158;28;20209;-61
2022/03/10 07:10:25;;;;;;;1.60;1.50;;;3.30;99.90;;;;;;5071088;28;20736;-61
2022/03/10 07:12:58;;;;;;;2.40;1.80;;;3.20;99.90;;;;;;5064437;28;20229;-62
2022/03/10 07:15:29;;;;;;;2.10;2.00;;;3.20;99.90;;;;;;5064603;28;20852;-61
2022/03/10 07:18:00;;;;;;;3.25;1.80;;;3.20;99.90;;;;;;5063900;28;20205;-62
2022/03/10 07:20:31;;;;;;;1.88;1.77;;;3.20;99.90;;;;;;5073605;28;20221;-61
2022/03/10 07:23:01;;;;;;;2.20;2.10;;;3.20;99.90;;;;;;5063150;28;20198;-61
2022/03/10 07:25:33;;;;;;;1.35;1.35;;;3.10;99.90;;;;;;5074471;28;20219;-61
2022/03/10 07:28:06;;;;;;;1.92;1.60;;;3.00;99.90;;;;;;5065672;28;20233;-61
2022/03/10 07:30:36;;;;;;;1.85;1.70;;;3.00;99.90;;;;;;5066142;28;20293;-61
2022/03/10 07:33:08;;;;;;;1.67;1.58;;;2.80;99.90;;;;;;5066812;28;20198;-61
2022/03/10 07:35:39;;;;;;;2.28;1.75;;;2.80;99.90;;;;;;5077601;28;20229;-61
2022/03/10 07:38:11;;;;;;;2.05;1.45;;;2.80;99.90;;;;;;5074932;28;20587;-62
2022/03/10 07:40:42;;;;;;;1.52;1.42;;;2.70;99.90;;;;;;5078716;28;20221;-62
2022/03/10 07:43:17;;;;;;;1.55;1.45;;;2.60;99.90;;;;;;5076738;28;20210;-61
2022/03/10 07:45:50;;;;;;;1.98;1.88;;;2.60;99.90;;;;;;5069102;28;20196;-61
2022/03/10 07:48:21;;;;;;;1.55;1.45;;;2.40;99.90;;;;;;5064723;28;20256;-61
2022/03/10 07:50:52;;;;;;;2.10;1.90;;;2.30;99.90;;;;;;5067046;28;20334;-61
2022/03/10 07:53:23;;;;;;;1.55;1.45;;;2.30;99.90;;;;;;5065417;28;20210;-61
2022/03/10 07:55:55;;;;;;;1.90;1.80;;;2.30;99.90;;;;;;5068362;28;20205;-61
2022/03/10 07:58:29;;;;;;;1.90;1.80;;;2.30;99.90;;;;;;5069441;28;20214;-62
2022/03/10 08:01:00;;;;;;;2.25;2.05;;;2.20;99.90;;;;;;5063012;28;20321;-61
2022/03/10 08:03:31;;;;;;;2.20;2.10;;;2.30;99.90;;;;;;5071548;28;20268;-60
2022/03/10 08:06:02;;;;;;;1.70;1.60;;;2.20;99.90;;;;;;5066322;28;20231;-61
2022/03/10 08:08:33;;;;;;;2.30;2.10;;;2.20;99.90;;;;;;5065153;28;20291;-61
2022/03/10 08:11:04;;;;;;;1.92;1.83;;;2.10;99.90;;;;;;5066664;28;20224;-61
2022/03/10 08:13:37;;;;;;;2.40;2.20;;;2.20;99.90;;;;;;5064611;28;20224;-61
2022/03/10 08:16:10;;;;;;;4.45;4.05;;;2.10;99.90;;;;;;5066483;28;20248;-61
2022/03/10 08:18:42;;;;;;;2.67;2.47;;;2.10;99.90;;;;;;5063801;28;20205;-65
2022/03/10 08:21:13;;;;;;;2.35;2.00;;;2.10;99.90;;;;;;5069660;28;20231;-61
2022/03/10 08:23:47;;;;;;;2.72;2.00;;;2.00;99.90;;;;;;5064144;28;20297;-61
2022/03/10 08:26:18;;;;;;;2.80;2.50;;;2.00;99.90;;;;;;5065769;28;20194;-61
2022/03/10 08:28:52;;;;;;;2.47;2.28;;;1.90;99.90;;;;;;5072263;28;20202;-63
2022/03/10 08:31:23;;;;;;;3.08;2.60;;;1.90;99.90;;;;;;5071959;28;20215;-62
2022/03/10 08:33:54;;;;;;;2.20;2.10;;;1.80;99.90;;;;;;5073481;28;20251;-62
2022/03/10 08:36:25;;;;;;;2.38;2.17;;;1.80;99.90;;;;;;5067413;28;20186;-62
2022/03/10 08:38:56;;;;;;;2.90;2.20;;;1.90;99.90;;;;;;5067302;28;20216;-61
2022/03/10 08:41:26;;;;;;;3.13;2.70;;;1.90;99.90;;;;;;5063476;28;20222;-62
2022/03/10 08:43:59;;;;;;;2.33;2.20;;;1.80;99.90;;;;;;5071935;28;20202;-62
2022/03/10 08:46:30;;;;;;;2.58;2.28;;;1.80;99.90;;;;;;5074456;28;20224;-61
2022/03/10 08:49:00;;;;;;;2.30;2.10;;;1.80;99.90;;;;;;5073116;28;20205;-61
2022/03/10 08:51:31;;;;;;;3.45;3.15;;;1.70;99.90;;;;;;5065235;28;20202;-62
2022/03/10 08:54:02;;;;;;;2.70;2.40;;;1.70;99.90;;;;;;5060378;28;20209;-61
2022/03/10 08:56:34;;;;;;;2.30;2.10;;;1.70;99.90;;;;;;5063920;28;20217;-62
2022/03/10 08:59:07;;;;;;;2.20;2.10;;;1.60;99.90;;;;;;5064438;28;20210;-62
2022/03/10 09:01:40;;;;;;;2.20;2.10;;;1.60;99.90;;;;;;5064591;28;20241;-62
2022/03/10 09:04:11;;;;;;;2.67;2.47;;;1.60;99.90;;;;;;5064384;28;20284;-62
2022/03/10 09:06:42;;;;;;;2.53;2.33;;;1.50;99.90;;;;;;5080329;28;20201;-62
2022/03/10 09:09:13;;;;;;;3.58;2.05;;;1.40;99.90;;;;;;5064104;28;20212;-62
2022/03/10 09:11:43;;;;;;;3.08;2.40;;;1.40;99.90;;;;;;5066019;28;20202;-62
2022/03/10 09:14:16;;;;;;;2.83;2.58;;;1.40;99.90;;;;;;5067135;28;20225;-62
2022/03/10 09:16:47;;;;;;;2.90;2.60;;;1.30;99.90;;;;;;5062094;28;20195;-62
2022/03/10 09:19:19;;;;;;;2.90;2.70;;;1.40;99.90;;;;;;5064452;28;20213;-62
2022/03/10 09:21:51;;;;;;;3.13;2.90;;;1.30;99.90;;;;;;5064892;28;20228;-62
2022/03/10 09:24:26;;;;;;;4.10;2.80;;;1.30;99.90;;;;;;5068119;28;20209;-62
2022/03/10 09:26:57;;;;;;;2.28;2.08;;;1.20;99.90;;;;;;5064657;28;20220;-62
2022/03/10 09:29:30;;;;;;;2.40;2.20;;;1.20;99.90;;;;;;5064808;28;20205;-62
2022/03/10 09:32:01;;;;;;;2.80;2.25;;;1.30;99.90;;;;;;5067036;28;20206;-62
2022/03/10 09:34:34;;;;;;;2.95;2.00;;;1.20;99.90;;;;;;5063764;28;20210;-62
2022/03/10 09:37:06;;;;;;;2.60;2.40;;;1.20;99.90;;;;;;5051313;28;20239;-62
2022/03/10 09:39:37;;;;;;;1.98;1.88;;;1.20;99.90;;;;;;5063244;28;20645;-62
2022/03/10 09:42:11;;;;;;;2.17;2.00;;;1.20;99.90;;;;;;5062478;28;20538;-62
2022/03/10 09:44:44;;;;;;;4.40;2.00;;;1.20;99.90;;;;;;5063197;28;20228;-62
2022/03/10 09:47:17;;;;;;;3.10;2.05;;;1.20;99.90;;;;;;5063025;28;20277;-62
2022/03/10 09:49:48;;;;;;;2.45;2.13;;;1.20;99.90;;;;;;5063832;28;20194;-62
2022/03/10 09:52:20;;;;;;;2.35;2.15;;;1.30;99.90;;;;;;5068383;28;20220;-62
2022/03/10 09:54:51;;;;;;;3.55;1.92;;;1.30;99.90;;;;;;5064056;28;20615;-62
2022/03/10 09:57:23;;;;;;;2.58;2.40;;;1.20;99.90;;;;;;5063411;28;20214;-62
2022/03/10 10:00:02;;;;;;;2.15;1.95;;;1.10;99.90;;;;;;5063824;28;20305;-62
2022/03/10 10:02:32;;;;;;;1.60;1.50;;;1.00;99.90;;;;;;5067902;28;20307;-62
2022/03/10 10:05:04;;;;;;;2.55;2.33;;;1.00;99.90;;;;;;5069881;28;20198;-62
2022/03/10 10:07:34;;;;;;;2.30;2.10;;;0.90;99.90;;;;;;5063096;28;20214;-62
2022/03/10 10:10:06;;;;;;;3.42;1.95;;;0.90;99.90;;;;;;5053565;28;20338;-62
2022/03/10 10:12:37;;;;;;;2.03;1.92;;;0.90;99.90;;;;;;5060409;28;20205;-62
2022/03/10 10:15:12;;;;;;;2.38;2.17;;;0.90;99.90;;;;;;5063171;28;20225;-62
2022/03/10 10:17:43;;;;;;;2.75;2.55;;;0.90;99.90;;;;;;5067200;28;20265;-62
2022/03/10 10:20:46;;;;;;;2.50;2.30;;;0.80;99.90;;;;;;5056799;28;20202;-62
2022/03/10 10:23:19;;;;;;;2.78;2.58;;;0.90;99.90;;;;;;5062833;28;20273;-61
2022/03/10 10:25:52;;;;;;;4.60;2.58;;;0.80;99.90;;;;;;5063118;28;20198;-62
2022/03/10 10:28:31;;;;;;;2.88;2.58;;;0.80;99.90;;;;;;5065221;28;20227;-62
2022/03/10 10:31:05;;;;;;;2.40;2.20;;;0.80;99.90;;;;;;5065427;28;20212;-61
2022/03/10 10:33:38;;;;;;;3.92;3.50;;;0.80;99.90;;;;;;5061820;28;20775;-62
2022/03/10 10:36:23;;;;;;;2.40;2.20;;;0.90;99.90;;;;;;5063391;28;20205;-61
2022/03/10 10:38:55;;;;;;;2.67;2.15;;;0.80;99.90;;;;;;5074958;28;20637;-62
2022/03/10 10:41:28;;;;;;;2.80;2.60;;;0.70;99.90;;;;;;5063984;28;20697;-62
2022/03/10 10:44:00;;;;;;;2.83;2.65;;;0.60;99.90;;;;;;5060792;28;20588;-61
2022/03/10 10:46:37;;;;;;;4.38;2.38;;;0.60;99.90;;;;;;5068339;28;20202;-62
2022/03/10 10:49:10;;;;;;;2.70;2.50;;;0.50;99.90;;;;;;5063502;28;20292;-62
2022/03/10 10:51:43;;;;;;;2.47;2.28;;;0.50;99.90;;;;;;5062827;28;20212;-62
2022/03/10 10:54:31;;;;;;;2.65;2.45;;;0.50;99.90;;;;;;5062116;28;20253;-62
2022/03/10 10:57:05;;;;;;;2.63;2.38;;;0.40;99.90;;;;;;5061720;28;20198;-62
2022/03/10 10:59:38;;;;;;;2.85;2.50;;;0.40;99.90;;;;;;5058715;28;20192;-62
2022/03/10 11:02:13;;;;;;;3.10;2.90;;;0.30;99.90;;;;;;5059470;28;20687;-61
2022/03/10 11:04:46;;;;;;;2.42;2.22;;;0.30;99.90;;;;;;5062633;28;20197;-61
2022/03/10 11:07:21;;;;;;;3.05;2.70;;;0.30;99.90;;;;;;5069610;28;20224;-61
2022/03/10 11:09:53;;;;;;;3.40;3.03;;;0.40;99.90;;;;;;5062829;28;20752;-61
2022/03/10 11:12:24;;;;;;;4.13;3.72;;;0.40;99.90;;;;;;5065764;28;20225;-61
2022/03/10 11:15:02;;;;;;;3.38;3.08;;;0.30;99.90;;;;;;5065740;28;20261;-61
2022/03/10 11:17:35;;;;;;;3.40;2.80;;;0.30;99.90;;;;;;5061916;28;20251;-61
2022/03/10 11:20:11;;;;;;;4.47;3.15;;;0.30;99.90;;;;;;5064238;28;20202;-62
2022/03/10 11:22:57;;;;;;;3.05;2.53;;;0.30;99.90;;;;;;5061667;28;20256;-61
2022/03/10 11:25:39;;;;;;;3.97;3.45;;;0.30;99.90;;;;;;5058728;28;20198;-61
2022/03/10 11:28:15;;;;;;;2.85;2.45;;;0.30;99.90;;;;;;5061213;28;20269;-61
2022/03/10 11:30:51;;;;;;;5.32;2.95;;;0.20;99.90;;;;;;5052889;28;20194;-62
2022/03/10 11:33:32;;;;;;;4.00;3.60;;;0.10;99.90;;;;;;5061906;28;20583;-62
2022/03/10 11:36:19;;;;;;;3.70;3.05;;;0.20;99.90;;;;;;5067457;28;20225;-62
2022/03/10 11:38:54;;;;;;;3.83;3.05;;;0.20;99.90;;;;;;5064768;28;20198;-61
2022/03/10 11:41:30;;;;;;;2.97;2.67;;;0.20;99.90;;;;;;5062183;28;20202;-62
2022/03/10 11:44:02;;;;;;;5.80;3.90;;;0.10;99.90;;;;;;5059448;28;20225;-62
2022/03/10 11:46:36;;;;;;;2.88;2.38;;;0.10;99.90;;;;;;5059235;28;20206;-62
2022/03/10 11:49:11;;;;;;;3.10;2.70;;;0.10;99.90;;;;;;5066670;28;20218;-61
2022/03/10 11:51:52;;;;;;;3.20;2.90;;;0.10;99.90;;;;;;5067317;28;20208;-62
2022/03/10 11:54:26;;;;;;;3.13;2.85;;;0.20;99.90;;;;;;5065087;28;20186;-61
2022/03/10 11:57:03;;;;;;;2.42;2.22;;;0.20;99.90;;;;;;5068842;28;20206;-62
2022/03/10 11:59:50;;;;;;;3.88;3.30;;;0.10;99.90;;;;;;5062655;28;20202;-62
2022/03/10 12:02:44;;;;;;;4.32;2.88;;;0.10;99.90;;;;;;5059697;28;20212;-62
2022/03/10 12:05:20;;;;;;;3.25;3.03;;;0.00;99.90;;;;;;5061277;28;20262;-61
2022/03/10 12:07:55;;;;;;;3.60;2.85;;;0.00;99.90;;;;;;5062067;28;20201;-62
2022/03/10 12:10:42;;;;;;;3.28;3.03;;;0.00;99.90;;;;;;5060019;28;20216;-62
2022/03/10 12:13:28;;;;;;;4.03;2.88;;;0.00;99.90;;;;;;5065035;28;20212;-62
2022/03/10 12:16:00;;;;;;;3.08;2.75;;;0.00;99.90;;;;;;5064767;28;20230;-62
2022/03/10 12:18:42;;;;;;;3.72;3.40;;;-0.10;99.90;;;;;;5065328;28;20194;-61
2022/03/10 12:21:23;;;;;;;4.28;3.58;;;-0.10;99.90;;;;;;5066221;28;20301;-61
2022/03/10 12:23:55;;;;;;;4.90;3.58;;;-0.10;99.90;;;;;;5053169;28;20221;-61
2022/03/10 12:26:31;;;;;;;3.33;2.95;;;-0.20;99.90;;;;;;5065536;28;20206;-61
2022/03/10 12:29:03;;;;;;;4.57;3.08;;;-0.20;99.90;;;;;;5067748;28;20216;-62
2022/03/10 12:31:36;;;;;;;3.20;2.90;;;-0.10;99.90;;;;;;5064825;28;20367;-62
2022/03/10 12:34:09;;;;;;;4.45;3.45;;;-0.10;99.90;;;;;;5069759;28;20228;-62
2022/03/10 12:36:53;;;;;;;2.70;2.50;;;-0.10;99.90;;;;;;5065237;28;20198;-61
2022/03/10 12:39:28;;;;;;;6.20;3.65;;;0.00;99.90;;;;;;5066509;28;20201;-61
2022/03/10 12:42:02;;;;;;;3.58;3.15;;;0.10;99.90;;;;;;5073463;28;20281;-61
2022/03/10 12:44:33;;;;;;;5.57;3.75;;;0.10;99.90;;;;;;5063713;28;20225;-60
2022/03/10 12:47:08;;;;;;;4.60;3.75;;;0.20;99.90;;;;;;5068553;28;20310;-61
2022/03/10 12:49:40;;;;;;;4.18;3.78;;;0.30;99.90;;;;;;5064866;28;20201;-61
2022/03/10 12:52:14;;;;;;;3.60;3.30;;;0.40;99.90;;;;;;5065610;28;20305;-61
2022/03/10 12:54:47;;;;;;;4.30;3.60;;;0.40;99.90;;;;;;5065209;28;20212;-61
2022/03/10 12:57:18;;;;;;;4.68;3.65;;;0.40;99.90;;;;;;5063237;28;20313;-61
2022/03/10 12:59:50;;;;;;;4.47;4.07;;;0.30;99.90;;;;;;5064444;28;20202;-61
2022/03/10 13:02:26;;;;;;;4.85;4.30;;;0.40;99.90;;;;;;5065129;28;20221;-61
2022/03/10 13:05:00;;;;;;;5.30;4.80;;;0.30;99.90;;;;;;5070194;28;20257;-61
2022/03/10 13:07:34;;;;;;;6.50;5.15;;;0.30;99.90;;;;;;5064860;28;20194;-61
2022/03/10 13:10:07;;;;;;;6.25;4.88;;;0.30;99.90;;;;;;5070741;28;20209;-61
2022/03/10 13:12:40;;;;;;;6.00;4.63;;;0.30;99.90;;;;;;5068268;28;20202;-61
2022/03/10 13:15:12;;;;;;;7.80;5.10;;;0.30;99.90;;;;;;5064510;28;20611;-61
2022/03/10 13:17:46;;;;;;;5.68;4.63;;;0.20;99.90;;;;;;5064560;28;20230;-61
2022/03/10 13:20:26;;;;;;;6.03;5.00;;;0.10;99.90;;;;;;5062609;28;20190;-61
2022/03/10 13:23:00;;;;;;;5.10;4.70;;;0.00;99.90;;;;;;5063322;28;20618;-61
2022/03/10 13:25:36;;;;;;;5.68;5.07;;;0.00;99.90;;;;;;5062817;28;20265;-61
2022/03/10 13:28:08;;;;;;;6.82;5.20;;;0.10;99.90;;;;;;5076405;28;20201;-61
2022/03/10 13:30:46;;;;;;;5.55;5.05;;;0.10;99.90;;;;;;5062215;28;20209;-61
2022/03/10 13:33:18;;;;;;;5.95;5.35;;;0.10;99.90;;;;;;5069013;28;20265;-61